Terminal Aerodrome Forecast
Issued by NWS

Home | Current Version | Previous Version | Text Only | Print | Product List | Glossary On
Versions: 1 2 3 4 5 6 7 8 9 10 11 12 13 14
000
FTUS46 KMTR 202320
TAFSJC
TAF
KSJC 202320Z 2100/2124 30011KT P6SM FEW030 FEW150 SCT200
     FM210300 30006KT P6SM FEW024 SCT150 BKN200
     FM210600 20003KT P6SM SCT024 BKN150
     FM210800 16003KT P6SM BKN024 BKN150
     FM211700 VRB02KT P6SM SCT024 BKN035 BKN100
     FM212200 23007KT P6SM VCSH BKN022 OVC080=

USA.gov is the U.S. government's official web portal to all federal, state and local government web resources and services.